Terminal Aerodrome Forecast
Issued by NWS

Home | Current Version | Previous Version | Text Only | Print | Product List | Glossary On
Versions: 1 2 3 4 5 6 7 8 9 10 11 12 13 14 15 16 17
000
FTUS44 KHGX 270520
TAFLBX
TAF
KLBX 270520Z 2706/2806 VRB04KT P6SM SCT035 BKN150
     FM270900 02004KT 6SM BR VCSH SCT025 BKN250
      TEMPO 2710/2714 TSRA BKN025CB
     FM271400 04006KT P6SM -RA VCTS SCT030CB BKN120
      TEMPO 2714/2718 TSRA BKN030CB
     FM271800 03009KT P6SM -RA VCTS FEW025 SCT035CB BKN120
     FM280300 03005KT P6SM -RA VCTS FEW015 SCT030CB BKN120=

USA.gov is the U.S. government's official web portal to all federal, state and local government web resources and services.